createdAt,value
2022-10-15T00:00:01.551Z,0.00
2022-10-15T00:01:01.531Z,0.00
2022-10-15T00:02:01.452Z,0.00
2022-10-15T00:03:01.412Z,0.00
2022-10-15T00:05:01.323Z,0.00
2022-10-15T00:06:01.288Z,0.00
2022-10-15T00:07:01.247Z,0.00
2022-10-15T00:08:01.206Z,0.00
2022-10-15T00:09:01.175Z,0.00
2022-10-15T00:10:01.122Z,0.00
2022-10-15T00:11:01.081Z,0.00
2022-10-15T00:12:01.043Z,0.00
2022-10-15T00:13:01.009Z,0.00
2022-10-15T00:14:00.979Z,0.00
2022-10-15T00:15:00.935Z,0.00
2022-10-15T00:16:00.885Z,0.00
2022-10-15T00:17:00.855Z,0.00
2022-10-15T00:18:00.809Z,0.00
2022-10-15T00:19:00.780Z,0.00
2022-10-15T00:20:00.726Z,0.00
2022-10-15T00:21:00.686Z,0.00
2022-10-15T00:23:00.602Z,0.00
2022-10-15T00:24:00.574Z,0.00
2022-10-15T00:25:00.545Z,0.00
2022-10-15T00:26:00.500Z,0.00
2022-10-15T00:27:00.451Z,0.00
2022-10-15T00:28:00.410Z,0.00
2022-10-15T00:29:00.420Z,0.00
2022-10-15T00:30:00.341Z,0.00
2022-10-15T00:31:00.350Z,0.00
2022-10-15T00:32:00.250Z,0.00
2022-10-15T00:33:00.212Z,0.00
2022-10-15T00:34:00.177Z,0.00
2022-10-15T00:35:00.135Z,0.00
2022-10-15T00:36:00.096Z,0.00
2022-10-15T00:37:00.088Z,0.00
2022-10-15T00:38:00.014Z,0.00
2022-10-15T00:38:59.978Z,0.00
2022-10-15T00:39:59.991Z,0.00
2022-10-15T00:40:59.914Z,0.00
2022-10-15T00:41:59.868Z,0.00
2022-10-15T00:42:59.826Z,0.00
2022-10-15T00:43:59.778Z,0.00
2022-10-15T00:44:59.733Z,0.00
2022-10-15T00:45:59.701Z,0.00
2022-10-15T00:46:59.673Z,0.00
2022-10-15T00:47:59.621Z,0.00
2022-10-15T00:48:59.632Z,0.00
2022-10-15T00:49:59.542Z,0.00
2022-10-15T00:50:59.494Z,0.00
2022-10-15T00:51:59.466Z,0.00
2022-10-15T00:52:59.427Z,0.00
2022-10-15T00:53:59.385Z,0.00
2022-10-15T00:54:59.358Z,0.00
2022-10-15T00:55:59.303Z,0.00
2022-10-15T00:56:59.265Z,0.00
2022-10-15T00:57:59.253Z,0.00
2022-10-15T00:58:59.183Z,0.00
2022-10-15T00:59:59.148Z,0.00
2022-10-15T01:00:59.159Z,0.00
2022-10-15T01:01:59.056Z,0.00
2022-10-15T01:02:59.014Z,0.00
2022-10-15T01:03:58.977Z,0.00
2022-10-15T01:04:58.938Z,0.00
2022-10-15T01:05:58.919Z,0.00
2022-10-15T01:06:58.859Z,0.00
2022-10-15T01:07:58.839Z,0.00
2022-10-15T01:08:58.777Z,0.00
2022-10-15T01:09:58.753Z,0.00
2022-10-15T01:10:58.697Z,0.00
2022-10-15T01:11:58.660Z,0.00
2022-10-15T01:12:58.626Z,0.00
2022-10-15T01:13:58.590Z,0.00
2022-10-15T01:14:58.534Z,0.00
2022-10-15T01:15:58.511Z,0.00
2022-10-15T01:16:58.469Z,0.00
2022-10-15T01:17:58.418Z,0.00
2022-10-15T01:18:58.393Z,0.00
2022-10-15T01:19:58.338Z,0.00
2022-10-15T01:20:58.318Z,0.00
2022-10-15T01:21:58.273Z,0.00
2022-10-15T01:22:58.223Z,0.00
2022-10-15T01:23:58.177Z,0.00
2022-10-15T01:24:58.137Z,0.00
2022-10-15T01:25:58.112Z,0.00
2022-10-15T01:26:58.058Z,0.00
2022-10-15T01:27:58.018Z,0.00
2022-10-15T01:28:58.048Z,0.00
2022-10-15T01:29:57.939Z,0.00
2022-10-15T01:30:57.898Z,0.00
2022-10-15T01:31:57.878Z,0.00
2022-10-15T01:32:57.819Z,0.00
2022-10-15T01:33:57.781Z,0.00
2022-10-15T01:34:57.741Z,0.00
2022-10-15T01:36:00.168Z,0.00
2022-10-15T01:36:57.660Z,0.00
2022-10-15T01:37:57.634Z,0.00
2022-10-15T01:38:57.577Z,0.00
2022-10-15T01:39:57.540Z,0.00
2022-10-15T01:40:57.497Z,0.00
2022-10-15T01:41:57.463Z,0.00
2022-10-15T01:42:57.419Z,0.00
2022-10-15T01:43:57.405Z,0.00
2022-10-15T01:44:57.344Z,0.00
2022-10-15T01:45:57.311Z,0.00
2022-10-15T01:46:57.265Z,0.00
2022-10-15T01:47:57.225Z,0.00
2022-10-15T01:48:57.268Z,0.00
2022-10-15T01:49:57.144Z,0.00
2022-10-15T01:50:57.103Z,0.00
2022-10-15T01:51:57.060Z,0.00
2022-10-15T01:52:57.024Z,0.00
2022-10-15T01:53:56.986Z,0.00
2022-10-15T01:54:56.952Z,0.00
2022-10-15T01:55:56.909Z,0.00
2022-10-15T01:56:56.861Z,0.00
2022-10-15T01:57:56.832Z,0.00
2022-10-15T01:58:56.792Z,0.00
2022-10-15T01:59:56.747Z,0.00
2022-10-15T02:00:56.732Z,0.00
2022-10-15T02:01:58.093Z,0.00
2022-10-15T02:02:56.628Z,0.00
2022-10-15T02:03:56.581Z,0.00
2022-10-15T02:04:56.537Z,0.00
2022-10-15T02:05:56.499Z,0.00
2022-10-15T02:06:56.480Z,0.00
2022-10-15T02:07:56.420Z,0.00
2022-10-15T02:08:56.385Z,0.00
2022-10-15T02:09:56.345Z,0.00
2022-10-15T02:10:56.373Z,0.00
2022-10-15T02:11:56.258Z,0.00
2022-10-15T02:12:56.220Z,0.00
2022-10-15T02:13:56.182Z,0.00
2022-10-15T02:14:56.143Z,0.00
2022-10-15T02:15:56.105Z,0.00
2022-10-15T02:16:56.080Z,0.00
2022-10-15T02:17:56.016Z,0.00
2022-10-15T02:18:55.975Z,0.00
2022-10-15T02:19:55.976Z,0.00
2022-10-15T02:20:55.903Z,0.00
2022-10-15T02:21:55.859Z,0.00
2022-10-15T02:22:55.836Z,0.00
2022-10-15T02:23:55.784Z,0.00
2022-10-15T02:24:55.917Z,0.00
2022-10-15T02:25:55.706Z,0.00
2022-10-15T02:26:55.671Z,0.00
2022-10-15T02:27:55.619Z,0.00
2022-10-15T02:28:55.718Z,0.00
2022-10-15T02:29:55.561Z,0.00
2022-10-15T02:30:55.498Z,0.00
2022-10-15T02:31:55.460Z,0.00
2022-10-15T02:32:55.450Z,0.00
2022-10-15T02:33:55.379Z,0.00
2022-10-15T02:34:55.337Z,0.00
2022-10-15T02:35:55.314Z,0.00
2022-10-15T02:36:55.258Z,0.00
2022-10-15T02:37:55.231Z,0.00
2022-10-15T02:38:55.206Z,0.00
2022-10-15T02:39:55.206Z,0.00
2022-10-15T02:40:55.097Z,0.00
2022-10-15T02:41:55.060Z,0.00
2022-10-15T02:42:55.019Z,0.00
2022-10-15T02:43:55.006Z,0.00
2022-10-15T02:44:54.947Z,0.00
2022-10-15T02:45:54.901Z,0.00
2022-10-15T02:46:54.862Z,0.00
2022-10-15T02:47:54.827Z,0.00
2022-10-15T02:48:54.791Z,0.00
2022-10-15T02:49:54.738Z,0.00
2022-10-15T02:50:54.694Z,0.00
2022-10-15T02:51:54.659Z,0.00
2022-10-15T02:52:54.618Z,0.00
2022-10-15T02:53:54.589Z,0.00
2022-10-15T02:54:54.551Z,0.00
2022-10-15T02:55:54.499Z,0.00
2022-10-15T02:56:54.470Z,0.00
2022-10-15T02:57:54.427Z,0.00
2022-10-15T02:58:54.381Z,0.00
2022-10-15T02:59:54.341Z,0.00
2022-10-15T03:00:54.334Z,0.00
2022-10-15T03:01:54.263Z,0.00
2022-10-15T03:02:54.221Z,0.00
2022-10-15T03:03:54.182Z,0.00
2022-10-15T03:04:54.140Z,0.00
2022-10-15T03:05:54.101Z,0.00
2022-10-15T03:06:54.081Z,0.00
2022-10-15T03:07:54.026Z,0.00
2022-10-15T03:08:53.982Z,0.00
2022-10-15T03:09:53.943Z,0.00
2022-10-15T03:10:53.905Z,0.00
2022-10-15T03:11:53.870Z,0.00
2022-10-15T03:12:53.838Z,0.00
2022-10-15T03:13:53.791Z,0.00
2022-10-15T03:14:53.745Z,0.00
2022-10-15T03:15:53.702Z,0.00
2022-10-15T03:16:53.667Z,0.00
2022-10-15T03:17:53.637Z,0.00
2022-10-15T03:18:53.605Z,0.00
2022-10-15T03:19:53.543Z,0.00
2022-10-15T03:20:53.503Z,0.00
2022-10-15T03:21:53.473Z,0.00
2022-10-15T03:22:53.430Z,0.00
2022-10-15T03:23:53.383Z,0.00
2022-10-15T03:24:53.364Z,0.00
2022-10-15T03:25:53.303Z,0.00
2022-10-15T03:26:53.273Z,0.00
2022-10-15T03:27:53.235Z,0.00
2022-10-15T03:28:53.238Z,0.00
2022-10-15T03:29:53.149Z,0.00
2022-10-15T03:30:53.124Z,0.00
2022-10-15T03:31:53.072Z,0.00
2022-10-15T03:32:53.026Z,0.00
2022-10-15T03:33:52.985Z,0.00
2022-10-15T03:34:52.969Z,0.00
2022-10-15T03:35:52.921Z,0.00
2022-10-15T03:36:52.884Z,0.00
2022-10-15T03:37:52.827Z,0.00
2022-10-15T03:38:52.808Z,0.00
2022-10-15T03:39:52.750Z,0.00
2022-10-15T03:40:52.708Z,0.00
2022-10-15T03:41:52.680Z,0.00
2022-10-15T03:42:52.658Z,0.00
2022-10-15T03:43:52.603Z,0.00
2022-10-15T03:44:52.550Z,0.00
2022-10-15T03:45:52.508Z,0.00
2022-10-15T03:46:52.491Z,0.00
2022-10-15T03:47:52.429Z,0.00
2022-10-15T03:48:52.410Z,0.00
2022-10-15T03:49:52.363Z,0.00
2022-10-15T03:50:52.328Z,0.00
2022-10-15T03:51:52.277Z,0.00
2022-10-15T03:52:52.234Z,0.00
2022-10-15T03:53:52.198Z,0.00
2022-10-15T03:54:52.168Z,0.00
2022-10-15T03:55:52.110Z,0.00
2022-10-15T03:56:52.072Z,0.00
2022-10-15T03:57:52.037Z,0.00
2022-10-15T03:58:51.994Z,0.00
2022-10-15T03:59:51.975Z,0.00
2022-10-15T04:00:51.977Z,0.00
2022-10-15T04:01:51.886Z,0.00
2022-10-15T04:02:51.839Z,0.00
2022-10-15T04:03:51.797Z,0.00
2022-10-15T04:04:51.771Z,0.00
2022-10-15T04:05:54.040Z,0.00
2022-10-15T04:06:51.679Z,0.00
2022-10-15T04:07:51.636Z,0.00
2022-10-15T04:09:51.559Z,0.00
2022-10-15T04:10:51.527Z,0.00
2022-10-15T04:11:51.484Z,0.00
2022-10-15T04:12:51.448Z,0.00
2022-10-15T04:13:51.421Z,0.00
2022-10-15T04:14:51.371Z,0.00
2022-10-15T04:15:51.327Z,0.00
2022-10-15T04:16:51.282Z,0.00
2022-10-15T04:18:51.205Z,0.00
2022-10-15T04:19:51.172Z,0.00
2022-10-15T04:20:51.121Z,0.00
2022-10-15T04:21:51.087Z,0.00
2022-10-15T04:22:51.045Z,0.00
2022-10-15T04:23:51.005Z,0.00
2022-10-15T04:24:50.974Z,0.00
2022-10-15T04:25:50.935Z,0.00
2022-10-15T04:26:50.887Z,0.00
2022-10-15T04:27:50.847Z,0.00
2022-10-15T04:28:50.877Z,0.00
2022-10-15T04:29:50.768Z,0.00
2022-10-15T04:30:50.747Z,0.00
2022-10-15T04:31:50.709Z,0.00
2022-10-15T04:32:50.653Z,0.00
2022-10-15T04:33:50.610Z,0.00
2022-10-15T04:34:50.578Z,0.00
2022-10-15T04:35:50.543Z,0.00
2022-10-15T04:36:50.509Z,0.00
2022-10-15T04:37:50.450Z,0.00
2022-10-15T04:38:50.417Z,0.00
2022-10-15T04:39:50.375Z,0.00
2022-10-15T04:40:50.333Z,0.00
2022-10-15T04:41:50.296Z,0.00
2022-10-15T04:42:50.282Z,0.00
2022-10-15T04:43:50.215Z,0.00
2022-10-15T04:44:50.176Z,0.00
2022-10-15T04:45:50.139Z,0.00
2022-10-15T04:46:50.098Z,0.00
2022-10-15T04:47:50.056Z,0.00
2022-10-15T04:48:50.044Z,0.00
2022-10-15T04:49:49.984Z,0.00
2022-10-15T04:50:49.943Z,0.00
2022-10-15T04:51:49.899Z,0.00
2022-10-15T04:52:49.863Z,0.00
2022-10-15T04:53:49.829Z,0.00
2022-10-15T04:54:49.799Z,0.00
2022-10-15T04:55:49.741Z,0.00
2022-10-15T04:56:49.712Z,0.00
2022-10-15T04:57:49.677Z,0.00
2022-10-15T04:58:49.635Z,0.00
2022-10-15T04:59:52.701Z,0.00
2022-10-15T05:00:49.544Z,0.00
2022-10-15T05:01:49.528Z,0.00
2022-10-15T05:02:49.468Z,0.00
2022-10-15T05:03:49.431Z,0.00
2022-10-15T05:04:49.393Z,0.00
2022-10-15T05:05:49.368Z,0.00
2022-10-15T05:06:49.319Z,0.00
2022-10-15T05:07:49.285Z,0.00
2022-10-15T05:08:49.228Z,0.00
2022-10-15T05:09:49.205Z,0.00
2022-10-15T05:10:49.167Z,0.00
2022-10-15T05:11:49.123Z,0.00
2022-10-15T05:12:51.446Z,0.00
2022-10-15T05:13:49.034Z,0.00
2022-10-15T05:14:49.010Z,0.00
2022-10-15T05:15:48.962Z,0.00
2022-10-15T05:16:48.922Z,0.00
2022-10-15T05:17:48.886Z,0.00
2022-10-15T05:18:48.842Z,0.00
2022-10-15T05:19:48.806Z,0.00
2022-10-15T05:20:48.775Z,0.00
2022-10-15T05:22:48.680Z,0.00
2022-10-15T05:23:48.643Z,0.00
2022-10-15T05:24:48.604Z,0.00
2022-10-15T05:25:51.716Z,4.00
2022-10-15T05:26:48.537Z,4.00
2022-10-15T05:27:48.482Z,4.00
2022-10-15T05:28:48.506Z,4.00
2022-10-15T05:29:48.411Z,4.00
2022-10-15T05:30:48.364Z,4.00
2022-10-15T05:31:48.325Z,4.00
2022-10-15T05:32:48.298Z,8.00
2022-10-15T05:33:48.241Z,12.00
2022-10-15T05:34:48.222Z,12.00
2022-10-15T05:35:48.171Z,12.00
2022-10-15T05:36:48.156Z,16.00
2022-10-15T05:37:48.088Z,16.00
2022-10-15T05:38:48.061Z,20.00
2022-10-15T05:39:48.012Z,20.00
2022-10-15T05:40:47.975Z,20.00
2022-10-15T05:41:47.934Z,24.00
2022-10-15T05:42:47.911Z,24.00
2022-10-15T05:43:47.845Z,28.00
2022-10-15T05:44:47.850Z,28.00
2022-10-15T05:45:47.773Z,32.00
2022-10-15T05:46:47.736Z,32.00
2022-10-15T05:47:47.695Z,36.00
2022-10-15T05:48:47.652Z,36.00
2022-10-15T05:49:47.613Z,52.00
2022-10-15T05:50:47.585Z,68.00
2022-10-15T05:51:47.569Z,88.00
2022-10-15T05:52:47.494Z,100.00
2022-10-15T05:53:47.452Z,116.00
2022-10-15T05:54:47.413Z,132.00
2022-10-15T05:55:47.378Z,152.00
2022-10-15T05:56:47.355Z,180.00
2022-10-15T05:57:48.117Z,204.00
2022-10-15T05:58:47.256Z,224.00
2022-10-15T05:59:47.214Z,244.00
2022-10-15T06:00:47.174Z,268.00
2022-10-15T06:01:47.168Z,276.00
2022-10-15T06:02:47.302Z,280.00
2022-10-15T06:03:47.056Z,296.00
2022-10-15T06:04:47.018Z,308.00
2022-10-15T06:05:46.976Z,328.00
2022-10-15T06:06:46.937Z,352.00
2022-10-15T06:07:46.895Z,368.00
2022-10-15T06:08:46.872Z,372.00
2022-10-15T06:09:46.819Z,408.00
2022-10-15T06:10:46.781Z,464.00
2022-10-15T06:11:46.740Z,512.00
2022-10-15T06:12:46.700Z,552.00
2022-10-15T06:13:46.674Z,604.00
2022-10-15T06:14:46.625Z,684.00
2022-10-15T06:15:46.582Z,780.00
2022-10-15T06:16:46.542Z,848.00
2022-10-15T06:17:46.506Z,888.00
2022-10-15T06:18:46.462Z,936.00
2022-10-15T06:19:46.434Z,968.00
2022-10-15T06:20:46.390Z,936.00
2022-10-15T06:21:46.342Z,840.00
2022-10-15T06:22:46.304Z,812.00
2022-10-15T06:23:46.266Z,832.00
2022-10-15T06:24:46.277Z,824.00
2022-10-15T06:25:46.197Z,848.00
2022-10-15T06:26:46.147Z,908.00
2022-10-15T06:27:46.143Z,992.00
2022-10-15T06:28:46.118Z,1092.00
2022-10-15T06:29:46.031Z,1196.00
2022-10-15T06:30:45.992Z,1284.00
2022-10-15T06:31:45.962Z,1304.00
2022-10-15T06:32:45.910Z,1336.00
2022-10-15T06:33:45.875Z,1432.00
2022-10-15T06:34:45.833Z,1536.00
2022-10-15T06:35:45.789Z,1612.00
2022-10-15T06:36:45.753Z,1500.00
2022-10-15T06:37:45.725Z,1460.00
2022-10-15T06:38:45.674Z,1624.00
2022-10-15T06:39:45.631Z,1860.00
2022-10-15T06:40:45.596Z,2100.00
2022-10-15T06:41:45.554Z,1984.00
2022-10-15T06:42:45.519Z,1748.00
2022-10-15T06:43:45.548Z,1632.00
2022-10-15T06:44:45.437Z,1792.00
2022-10-15T06:45:45.397Z,1972.00
2022-10-15T06:46:45.360Z,2128.00
2022-10-15T06:47:45.344Z,2220.00
2022-10-15T06:48:45.284Z,2080.00
2022-10-15T06:49:45.240Z,1732.00
2022-10-15T06:50:45.203Z,1412.00
2022-10-15T06:51:45.165Z,1300.00
2022-10-15T06:52:45.124Z,1252.00
2022-10-15T06:53:45.095Z,1232.00
2022-10-15T06:54:45.049Z,1412.00
2022-10-15T06:55:45.004Z,1400.00
2022-10-15T06:56:44.989Z,1300.00
2022-10-15T06:57:44.926Z,1456.00
2022-10-15T06:58:44.888Z,1656.00
2022-10-15T06:59:44.853Z,1800.00
2022-10-15T07:00:44.813Z,1964.00
2022-10-15T07:01:44.768Z,2104.00
2022-10-15T07:02:44.742Z,2244.00
2022-10-15T07:03:44.694Z,2796.00
2022-10-15T07:04:44.654Z,3188.00
2022-10-15T07:05:44.616Z,3436.00
2022-10-15T07:06:44.574Z,3840.00
2022-10-15T07:07:44.543Z,3840.00
2022-10-15T07:08:44.495Z,3764.00
2022-10-15T07:09:44.457Z,2924.00
2022-10-15T07:10:44.417Z,2664.00
2022-10-15T07:11:44.380Z,3084.00
2022-10-15T07:12:44.342Z,2676.00
2022-10-15T07:13:44.310Z,2724.00
2022-10-15T07:14:44.263Z,3024.00
2022-10-15T07:15:44.220Z,3048.00
2022-10-15T07:16:44.182Z,2724.00
2022-10-15T07:17:44.142Z,2964.00
2022-10-15T07:18:44.109Z,3396.00
2022-10-15T07:19:44.073Z,3624.00
2022-10-15T07:20:44.033Z,3532.00
2022-10-15T07:21:43.985Z,3476.00
2022-10-15T07:22:43.948Z,4840.00
2022-10-15T07:23:43.903Z,5700.00
2022-10-15T07:24:43.868Z,5584.00
2022-10-15T07:25:43.839Z,5880.00
2022-10-15T07:26:43.793Z,6284.00
2022-10-15T07:27:43.746Z,6324.00
2022-10-15T07:28:43.772Z,6492.00
2022-10-15T07:29:43.673Z,10392.00
2022-10-15T07:30:43.633Z,8936.00
2022-10-15T07:32:45.677Z,11116.00
2022-10-15T07:33:43.518Z,6524.00
2022-10-15T07:34:43.477Z,9848.00
2022-10-15T07:35:43.439Z,7944.00
2022-10-15T07:36:43.400Z,5172.00
2022-10-15T07:37:43.376Z,5540.00
2022-10-15T07:38:43.325Z,5256.00
2022-10-15T07:39:43.285Z,5252.00
2022-10-15T07:40:43.248Z,5100.00
2022-10-15T07:41:43.222Z,5108.00
2022-10-15T07:42:43.182Z,5232.00
2022-10-15T07:43:43.133Z,5192.00
2022-10-15T07:44:43.093Z,5080.00
2022-10-15T07:45:43.058Z,5096.00
2022-10-15T07:46:43.019Z,5536.00
2022-10-15T07:47:42.984Z,5900.00
2022-10-15T07:48:42.965Z,6080.00
2022-10-15T07:49:42.904Z,7372.00
2022-10-15T07:50:42.864Z,6784.00
2022-10-15T07:51:42.829Z,7136.00
2022-10-15T07:52:42.789Z,8004.00
2022-10-15T07:53:42.751Z,8084.00
2022-10-15T07:54:42.725Z,7896.00
2022-10-15T07:55:42.676Z,8512.00
2022-10-15T07:56:42.636Z,8528.00
2022-10-15T07:57:42.603Z,8784.00
2022-10-15T07:58:42.560Z,10084.00
2022-10-15T07:59:42.526Z,9216.00
2022-10-15T08:00:42.500Z,9232.00
2022-10-15T08:01:44.154Z,9304.00
2022-10-15T08:02:42.409Z,9116.00
2022-10-15T08:03:42.372Z,9272.00
2022-10-15T08:04:42.332Z,9672.00
2022-10-15T08:05:42.296Z,10792.00
2022-10-15T08:06:42.267Z,13084.00
2022-10-15T08:07:42.219Z,19200.00
2022-10-15T08:08:42.194Z,10824.00
2022-10-15T08:09:42.177Z,9416.00
2022-10-15T08:10:42.109Z,8416.00
2022-10-15T08:11:42.070Z,12480.00
2022-10-15T08:15:46.859Z,9208.00
2022-10-15T08:16:19.192Z,10100.00
2022-10-15T08:17:19.164Z,10464.00
2022-10-15T08:18:19.115Z,6396.00
2022-10-15T08:19:19.113Z,5812.00
2022-10-15T08:20:19.043Z,6036.00
2022-10-15T08:21:19.018Z,6080.00
2022-10-15T08:22:18.970Z,6280.00
2022-10-15T08:23:19.845Z,7720.00
2022-10-15T08:24:18.910Z,7976.00
2022-10-15T08:25:18.861Z,9116.00
2022-10-15T08:26:18.823Z,7224.00
2022-10-15T08:27:18.795Z,8240.00
2022-10-15T08:28:18.799Z,10076.00
2022-10-15T08:29:18.712Z,9384.00
2022-10-15T08:30:18.672Z,8392.00
2022-10-15T08:31:18.650Z,9572.00
2022-10-15T08:32:18.603Z,11476.00
2022-10-15T08:33:18.566Z,8488.00
2022-10-15T08:34:18.535Z,7016.00
2022-10-15T08:35:18.490Z,8872.00
2022-10-15T08:36:18.451Z,7748.00
2022-10-15T08:37:18.419Z,6988.00
2022-10-15T08:38:19.834Z,5880.00
2022-10-15T08:39:18.342Z,5952.00
2022-10-15T08:40:18.314Z,6176.00
2022-10-15T08:41:18.268Z,5740.00
2022-10-15T08:42:18.228Z,6768.00
2022-10-15T08:43:18.207Z,6796.00
2022-10-15T08:44:18.153Z,6880.00
2022-10-15T08:45:18.119Z,7232.00
2022-10-15T08:46:18.092Z,8296.00
2022-10-15T08:47:18.044Z,10416.00
2022-10-15T08:48:18.005Z,9964.00
2022-10-15T08:49:17.969Z,11444.00
2022-10-15T08:50:17.931Z,11524.00
2022-10-15T08:51:17.906Z,12768.00
2022-10-15T08:52:17.869Z,12592.00
2022-10-15T08:53:17.819Z,12304.00
2022-10-15T08:54:17.781Z,12232.00
2022-10-15T08:55:17.810Z,12032.00
2022-10-15T08:56:17.715Z,12100.00
2022-10-15T08:57:17.678Z,11624.00
2022-10-15T08:58:17.630Z,11396.00
2022-10-15T08:59:17.594Z,11408.00
2022-10-15T09:00:17.556Z,11168.00
2022-10-15T09:01:17.516Z,11276.00
2022-10-15T09:02:17.493Z,11532.00
2022-10-15T09:03:17.490Z,11608.00
2022-10-15T09:04:17.528Z,11624.00
2022-10-15T09:05:17.373Z,12016.00
2022-10-15T09:06:17.332Z,11080.00
2022-10-15T09:07:17.300Z,10556.00
2022-10-15T09:08:17.270Z,10084.00
2022-10-15T09:09:17.225Z,9008.00
2022-10-15T09:10:17.198Z,7964.00
2022-10-15T09:11:17.149Z,7496.00
2022-10-15T09:12:17.119Z,8012.00
2022-10-15T09:13:17.087Z,9128.00
2022-10-15T09:14:17.038Z,9996.00
2022-10-15T09:15:16.999Z,10188.00
2022-10-15T09:16:16.969Z,10396.00
2022-10-15T09:17:16.928Z,10664.00
2022-10-15T09:18:16.887Z,11376.00
2022-10-15T09:19:16.864Z,11868.00
2022-10-15T09:20:16.813Z,12236.00
2022-10-15T09:21:16.781Z,11704.00
2022-10-15T09:22:16.743Z,11788.00
2022-10-15T09:23:16.756Z,11900.00
2022-10-15T09:24:16.665Z,11664.00
2022-10-15T09:25:16.649Z,12860.00
2022-10-15T09:26:16.591Z,12144.00
2022-10-15T09:27:16.556Z,11472.00
2022-10-15T09:28:16.622Z,11512.00
2022-10-15T09:29:16.484Z,12760.00
2022-10-15T09:30:16.444Z,12600.00
2022-10-15T09:31:16.423Z,10780.00
2022-10-15T09:32:16.368Z,8592.00
2022-10-15T09:33:16.332Z,7700.00
2022-10-15T09:34:16.314Z,7740.00
2022-10-15T09:35:16.262Z,8500.00
2022-10-15T09:36:16.231Z,9684.00
2022-10-15T09:37:16.181Z,11056.00
2022-10-15T09:38:16.146Z,11912.00
2022-10-15T09:39:16.127Z,12204.00
2022-10-15T09:40:16.073Z,11964.00
2022-10-15T09:41:16.069Z,11188.00
2022-10-15T09:42:16.021Z,10640.00
2022-10-15T09:43:15.963Z,10788.00
2022-10-15T09:44:19.653Z,11316.00
2022-10-15T09:45:15.893Z,11740.00
2022-10-15T09:46:15.847Z,11804.00
2022-10-15T09:47:15.822Z,12960.00
2022-10-15T09:48:15.779Z,14684.00
2022-10-15T09:49:15.746Z,15656.00
2022-10-15T09:50:15.737Z,14716.00
2022-10-15T09:51:15.660Z,14260.00
2022-10-15T09:52:15.637Z,13408.00
2022-10-15T09:53:15.586Z,13140.00
2022-10-15T09:54:15.553Z,13356.00
2022-10-15T09:55:15.514Z,13504.00
2022-10-15T09:56:15.474Z,14000.00
2022-10-15T09:57:15.454Z,14188.00
2022-10-15T09:58:15.397Z,14448.00
2022-10-15T09:59:15.369Z,14572.00
2022-10-15T10:00:15.330Z,13652.00
2022-10-15T10:01:15.292Z,12444.00
2022-10-15T10:02:15.324Z,11460.00
2022-10-15T10:03:15.229Z,12952.00
2022-10-15T10:04:15.214Z,15336.00
2022-10-15T10:05:15.160Z,15728.00
2022-10-15T10:06:15.105Z,15832.00
2022-10-15T10:07:15.071Z,13296.00
2022-10-15T10:08:15.034Z,11244.00
2022-10-15T10:09:15.013Z,9780.00
2022-10-15T10:10:14.957Z,9612.00
2022-10-15T10:11:14.923Z,10300.00
2022-10-15T10:12:14.885Z,10468.00
2022-10-15T10:13:14.848Z,11228.00
2022-10-15T10:14:14.826Z,11396.00
2022-10-15T10:15:14.775Z,11248.00
2022-10-15T10:16:14.740Z,9956.00
2022-10-15T10:17:14.706Z,8944.00
2022-10-15T10:18:14.666Z,9036.00
2022-10-15T10:19:14.632Z,8772.00
2022-10-15T10:20:14.611Z,8664.00
2022-10-15T10:21:14.553Z,8676.00
2022-10-15T10:22:14.524Z,9320.00
2022-10-15T10:23:14.482Z,8744.00
2022-10-15T10:24:14.510Z,9248.00
2022-10-15T10:25:14.433Z,8936.00
2022-10-15T10:26:14.439Z,9092.00
2022-10-15T10:27:14.354Z,9092.00
2022-10-15T10:28:14.302Z,9236.00
2022-10-15T10:29:22.341Z,10364.00
2022-10-15T10:30:14.715Z,11132.00
2022-10-15T10:31:14.193Z,11196.00
2022-10-15T10:32:14.157Z,9904.00
2022-10-15T10:33:14.111Z,8820.00
2022-10-15T10:34:14.070Z,7976.00
2022-10-15T10:35:14.042Z,7616.00
2022-10-15T10:36:13.998Z,7824.00
2022-10-15T10:37:13.962Z,7896.00
2022-10-15T10:38:13.951Z,7720.00
2022-10-15T10:39:13.890Z,7872.00
2022-10-15T10:40:13.843Z,8360.00
2022-10-15T10:41:13.822Z,10168.00
2022-10-15T10:42:13.773Z,13184.00
2022-10-15T10:43:13.730Z,12624.00
2022-10-15T10:44:13.712Z,10848.00
2022-10-15T10:45:17.718Z,10188.00
2022-10-15T10:46:13.626Z,9108.00
2022-10-15T10:47:13.583Z,9468.00
2022-10-15T10:48:13.549Z,10424.00
2022-10-15T10:49:13.510Z,10764.00
2022-10-15T10:50:13.480Z,10628.00
2022-10-15T10:51:16.749Z,10572.00
2022-10-15T10:52:13.408Z,10680.00
2022-10-15T10:53:13.354Z,11056.00
2022-10-15T10:54:13.315Z,10328.00
2022-10-15T10:55:13.294Z,10076.00
2022-10-15T10:56:13.239Z,10316.00
2022-10-15T10:57:13.209Z,9864.00
2022-10-15T10:58:13.165Z,11112.00
2022-10-15T10:59:13.127Z,12408.00
2022-10-15T11:00:13.088Z,10580.00
2022-10-15T11:01:13.114Z,10660.00
2022-10-15T11:02:13.011Z,12472.00
2022-10-15T11:03:12.980Z,12284.00
2022-10-15T11:04:15.506Z,9212.00
2022-10-15T11:05:12.901Z,8916.00
2022-10-15T11:06:12.859Z,9144.00
2022-10-15T11:07:12.843Z,9520.00
2022-10-15T11:08:12.786Z,10044.00
2022-10-15T11:09:12.779Z,9888.00
2022-10-15T11:10:12.710Z,10188.00
2022-10-15T11:11:12.672Z,10376.00
2022-10-15T11:12:12.641Z,10628.00
2022-10-15T11:13:12.684Z,8476.00
2022-10-15T11:14:12.562Z,7616.00
2022-10-15T11:15:12.526Z,8108.00
2022-10-15T11:16:12.483Z,8824.00
2022-10-15T11:17:12.449Z,9536.00
2022-10-15T11:18:12.421Z,10052.00
2022-10-15T11:19:19.805Z,10852.00
2022-10-15T11:20:27.830Z,10804.00
2022-10-15T11:21:12.306Z,10308.00
2022-10-15T11:22:12.325Z,10704.00
2022-10-15T11:23:12.224Z,10600.00
2022-10-15T11:24:12.183Z,10748.00
2022-10-15T11:25:12.161Z,11332.00
2022-10-15T11:26:12.123Z,10212.00
2022-10-15T11:27:12.071Z,9252.00
2022-10-15T11:28:12.030Z,8472.00
2022-10-15T11:29:12.000Z,8788.00
2022-10-15T11:30:11.967Z,9272.00
2022-10-15T11:31:12.001Z,9644.00
2022-10-15T11:32:15.191Z,10084.00
2022-10-15T11:33:11.992Z,10872.00
2022-10-15T11:34:11.828Z,13568.00
2022-10-15T11:35:16.963Z,15072.00
2022-10-15T11:36:11.736Z,13852.00
2022-10-15T11:37:11.695Z,13728.00
2022-10-15T11:38:11.647Z,12456.00
2022-10-15T11:39:11.616Z,10380.00
2022-10-15T11:40:11.581Z,8008.00
2022-10-15T11:41:11.558Z,8436.00
2022-10-15T11:42:11.503Z,10820.00
2022-10-15T11:43:11.464Z,11808.00
2022-10-15T11:44:11.425Z,11680.00
2022-10-15T11:45:11.390Z,11664.00
2022-10-15T11:46:11.354Z,11864.00
2022-10-15T11:47:11.332Z,10220.00
2022-10-15T11:48:11.279Z,8744.00
2022-10-15T11:49:11.243Z,7568.00
2022-10-15T11:50:11.201Z,8464.00
2022-10-15T11:51:11.167Z,8772.00
2022-10-15T11:52:11.139Z,9364.00
2022-10-15T11:53:11.088Z,8584.00
2022-10-15T11:54:11.061Z,7204.00
2022-10-15T11:55:11.012Z,6868.00
2022-10-15T11:56:10.984Z,6388.00
2022-10-15T11:57:10.952Z,5940.00
2022-10-15T11:58:10.902Z,4856.00
2022-10-15T11:59:10.888Z,5920.00
2022-10-15T12:00:10.831Z,7736.00
2022-10-15T12:01:10.802Z,7276.00
2022-10-15T12:02:10.751Z,7392.00
2022-10-15T12:03:10.756Z,7604.00
2022-10-15T12:04:10.706Z,10184.00
2022-10-15T12:05:10.639Z,11072.00
2022-10-15T12:06:10.603Z,12096.00
2022-10-15T12:07:10.569Z,12184.00
2022-10-15T12:08:10.533Z,12616.00
2022-10-15T12:09:10.507Z,15580.00
2022-10-15T12:10:10.458Z,16880.00
2022-10-15T12:11:10.560Z,15236.00
2022-10-15T12:12:10.375Z,12900.00
2022-10-15T12:13:10.348Z,12356.00
2022-10-15T12:14:10.302Z,13592.00
2022-10-15T12:15:10.280Z,12456.00
2022-10-15T12:16:10.230Z,10888.00
2022-10-15T12:18:10.152Z,9596.00
2022-10-15T12:19:10.117Z,10028.00
2022-10-15T12:20:10.085Z,10636.00
2022-10-15T12:21:10.060Z,9812.00
2022-10-15T12:22:10.023Z,10704.00
2022-10-15T12:23:09.988Z,11000.00
2022-10-15T12:24:09.943Z,11432.00
2022-10-15T12:25:09.902Z,10048.00
2022-10-15T12:26:09.899Z,9992.00
2022-10-15T12:27:09.837Z,9308.00
2022-10-15T12:28:09.791Z,8244.00
2022-10-15T12:29:09.795Z,9956.00
2022-10-15T12:30:09.722Z,12452.00
2022-10-15T12:31:09.677Z,12396.00
2022-10-15T12:32:09.682Z,11136.00
2022-10-15T12:33:09.604Z,11392.00
2022-10-15T12:34:09.571Z,10644.00
2022-10-15T12:35:09.614Z,10776.00
2022-10-15T12:36:09.586Z,9968.00
2022-10-15T12:37:09.459Z,8532.00
2022-10-15T12:38:09.431Z,8128.00
2022-10-15T12:39:17.575Z,9696.00
2022-10-15T12:40:09.349Z,10804.00
2022-10-15T12:41:09.311Z,11360.00